sensor_id;sensor_type;location;lat;lon;timestamp;P1;durP1;ratioP1;P2;durP2;ratioP2
51981;SDS011;37998;53.416;6.730;2023-12-04T00:01:21;30.73;;;21.42;;
51981;SDS011;37998;53.416;6.730;2023-12-04T00:03:47;34.83;;;20.38;;
51981;SDS011;37998;53.416;6.730;2023-12-04T00:06:13;28.48;;;19.40;;
51981;SDS011;37998;53.416;6.730;2023-12-04T00:08:39;32.17;;;20.55;;
51981;SDS011;37998;53.416;6.730;2023-12-04T00:11:05;31.05;;;19.10;;
51981;SDS011;37998;53.416;6.730;2023-12-04T00:13:35;31.38;;;20.02;;
51981;SDS011;37998;53.416;6.730;2023-12-04T00:16:01;31.52;;;20.08;;
51981;SDS011;37998;53.416;6.730;2023-12-04T00:18:27;33.22;;;20.17;;
51981;SDS011;37998;53.416;6.730;2023-12-04T00:20:53;30.13;;;20.23;;
51981;SDS011;37998;53.416;6.730;2023-12-04T00:23:19;29.88;;;20.38;;
51981;SDS011;37998;53.416;6.730;2023-12-04T00:25:45;30.38;;;20.88;;
51981;SDS011;37998;53.416;6.730;2023-12-04T00:28:10;33.83;;;21.77;;
51981;SDS011;37998;53.416;6.730;2023-12-04T00:30:36;29.58;;;20.45;;
51981;SDS011;37998;53.416;6.730;2023-12-04T00:33:02;31.23;;;20.33;;
51981;SDS011;37998;53.416;6.730;2023-12-04T00:35:28;30.48;;;20.45;;
51981;SDS011;37998;53.416;6.730;2023-12-04T00:37:54;33.58;;;20.13;;
51981;SDS011;37998;53.416;6.730;2023-12-04T00:40:20;33.50;;;21.00;;
51981;SDS011;37998;53.416;6.730;2023-12-04T00:42:46;30.73;;;20.52;;
51981;SDS011;37998;53.416;6.730;2023-12-04T00:45:11;30.42;;;20.40;;
51981;SDS011;37998;53.416;6.730;2023-12-04T00:47:37;31.05;;;20.02;;
51981;SDS011;37998;53.416;6.730;2023-12-04T00:50:03;33.63;;;19.58;;
51981;SDS011;37998;53.416;6.730;2023-12-04T00:52:30;31.40;;;20.58;;
51981;SDS011;37998;53.416;6.730;2023-12-04T00:54:55;31.27;;;19.92;;
51981;SDS011;37998;53.416;6.730;2023-12-04T00:57:21;31.02;;;19.98;;
51981;SDS011;37998;53.416;6.730;2023-12-04T00:59:48;31.88;;;20.45;;
51981;SDS011;37998;53.416;6.730;2023-12-04T01:02:14;32.20;;;20.42;;
51981;SDS011;37998;53.416;6.730;2023-12-04T01:04:40;29.70;;;18.98;;
51981;SDS011;37998;53.416;6.730;2023-12-04T01:07:06;30.60;;;19.80;;
51981;SDS011;37998;53.416;6.730;2023-12-04T01:09:36;33.08;;;19.58;;
51981;SDS011;37998;53.416;6.730;2023-12-04T01:12:02;29.38;;;19.10;;
51981;SDS011;37998;53.416;6.730;2023-12-04T01:14:28;33.47;;;20.77;;
51981;SDS011;37998;53.416;6.730;2023-12-04T01:16:55;30.90;;;19.92;;
51981;SDS011;37998;53.416;6.730;2023-12-04T01:19:21;31.48;;;20.63;;
51981;SDS011;37998;53.416;6.730;2023-12-04T01:21:47;31.70;;;20.00;;
51981;SDS011;37998;53.416;6.730;2023-12-04T01:24:14;27.92;;;18.85;;
51981;SDS011;37998;53.416;6.730;2023-12-04T01:26:40;32.08;;;20.75;;
51981;SDS011;37998;53.416;6.730;2023-12-04T01:29:07;32.28;;;20.73;;
51981;SDS011;37998;53.416;6.730;2023-12-04T01:31:32;31.13;;;20.23;;
51981;SDS011;37998;53.416;6.730;2023-12-04T01:33:58;33.55;;;19.83;;
51981;SDS011;37998;53.416;6.730;2023-12-04T01:36:24;32.42;;;20.88;;
51981;SDS011;37998;53.416;6.730;2023-12-04T01:38:50;30.00;;;19.00;;
51981;SDS011;37998;53.416;6.730;2023-12-04T01:41:16;30.15;;;20.73;;
51981;SDS011;37998;53.416;6.730;2023-12-04T01:43:42;28.00;;;19.90;;
51981;SDS011;37998;53.416;6.730;2023-12-04T01:46:08;33.10;;;20.83;;
51981;SDS011;37998;53.416;6.730;2023-12-04T01:48:36;34.30;;;20.60;;
51981;SDS011;37998;53.416;6.730;2023-12-04T01:51:03;30.52;;;19.95;;
51981;SDS011;37998;53.416;6.730;2023-12-04T01:53:33;33.42;;;21.38;;
51981;SDS011;37998;53.416;6.730;2023-12-04T01:56:01;30.83;;;20.40;;
51981;SDS011;37998;53.416;6.730;2023-12-04T01:58:27;33.72;;;21.00;;
51981;SDS011;37998;53.416;6.730;2023-12-04T02:00:53;30.17;;;19.80;;
51981;SDS011;37998;53.416;6.730;2023-12-04T02:03:19;29.73;;;20.05;;
51981;SDS011;37998;53.416;6.730;2023-12-04T02:05:45;30.10;;;19.83;;
51981;SDS011;37998;53.416;6.730;2023-12-04T02:08:12;31.08;;;20.42;;
51981;SDS011;37998;53.416;6.730;2023-12-04T02:10:38;32.25;;;19.58;;
51981;SDS011;37998;53.416;6.730;2023-12-04T02:13:05;31.85;;;20.33;;
51981;SDS011;37998;53.416;6.730;2023-12-04T02:15:32;33.97;;;21.10;;
51981;SDS011;37998;53.416;6.730;2023-12-04T02:17:58;30.10;;;19.40;;
51981;SDS011;37998;53.416;6.730;2023-12-04T02:20:34;30.75;;;19.90;;
51981;SDS011;37998;53.416;6.730;2023-12-04T02:23:00;31.83;;;21.00;;
51981;SDS011;37998;53.416;6.730;2023-12-04T02:25:27;30.60;;;20.58;;
51981;SDS011;37998;53.416;6.730;2023-12-04T02:27:53;33.20;;;19.23;;
51981;SDS011;37998;53.416;6.730;2023-12-04T02:30:22;28.77;;;19.90;;
51981;SDS011;37998;53.416;6.730;2023-12-04T02:32:49;34.53;;;21.70;;
51981;SDS011;37998;53.416;6.730;2023-12-04T02:35:19;31.15;;;20.30;;
51981;SDS011;37998;53.416;6.730;2023-12-04T02:37:47;30.58;;;19.83;;
51981;SDS011;37998;53.416;6.730;2023-12-04T02:40:14;31.42;;;20.83;;
51981;SDS011;37998;53.416;6.730;2023-12-04T02:42:41;31.08;;;20.00;;
51981;SDS011;37998;53.416;6.730;2023-12-04T02:45:07;31.50;;;20.25;;
51981;SDS011;37998;53.416;6.730;2023-12-04T02:47:33;28.48;;;19.02;;
51981;SDS011;37998;53.416;6.730;2023-12-04T02:49:59;32.28;;;20.70;;
51981;SDS011;37998;53.416;6.730;2023-12-04T02:52:25;32.15;;;21.08;;
51981;SDS011;37998;53.416;6.730;2023-12-04T02:54:50;28.50;;;18.88;;
51981;SDS011;37998;53.416;6.730;2023-12-04T02:57:16;29.73;;;19.23;;
51981;SDS011;37998;53.416;6.730;2023-12-04T02:59:42;29.50;;;20.30;;
51981;SDS011;37998;53.416;6.730;2023-12-04T03:02:08;29.30;;;20.30;;
51981;SDS011;37998;53.416;6.730;2023-12-04T03:04:34;34.13;;;20.80;;
51981;SDS011;37998;53.416;6.730;2023-12-04T03:07:00;29.95;;;20.30;;
51981;SDS011;37998;53.416;6.730;2023-12-04T03:09:26;28.65;;;19.25;;
51981;SDS011;37998;53.416;6.730;2023-12-04T03:11:52;31.50;;;20.88;;
51981;SDS011;37998;53.416;6.730;2023-12-04T03:14:18;32.10;;;20.73;;
51981;SDS011;37998;53.416;6.730;2023-12-04T03:16:44;29.10;;;18.23;;
51981;SDS011;37998;53.416;6.730;2023-12-04T03:19:10;29.83;;;20.80;;
51981;SDS011;37998;53.416;6.730;2023-12-04T03:21:36;35.67;;;21.65;;
51981;SDS011;37998;53.416;6.730;2023-12-04T03:24:02;31.27;;;20.95;;
51981;SDS011;37998;53.416;6.730;2023-12-04T03:26:28;28.55;;;19.05;;
51981;SDS011;37998;53.416;6.730;2023-12-04T03:28:54;30.20;;;20.13;;
51981;SDS011;37998;53.416;6.730;2023-12-04T03:31:21;29.90;;;19.77;;
51981;SDS011;37998;53.416;6.730;2023-12-04T03:33:49;28.88;;;20.33;;
51981;SDS011;37998;53.416;6.730;2023-12-04T03:36:14;32.55;;;20.73;;
51981;SDS011;37998;53.416;6.730;2023-12-04T03:38:40;31.08;;;20.25;;
51981;SDS011;37998;53.416;6.730;2023-12-04T03:41:16;31.58;;;20.58;;
51981;SDS011;37998;53.416;6.730;2023-12-04T03:43:42;33.38;;;21.52;;
51981;SDS011;37998;53.416;6.730;2023-12-04T03:46:08;32.60;;;21.60;;
51981;SDS011;37998;53.416;6.730;2023-12-04T03:48:34;31.85;;;20.38;;
51981;SDS011;37998;53.416;6.730;2023-12-04T03:51:00;29.20;;;20.42;;
51981;SDS011;37998;53.416;6.730;2023-12-04T03:53:26;29.17;;;20.27;;
51981;SDS011;37998;53.416;6.730;2023-12-04T03:55:52;29.33;;;20.25;;
51981;SDS011;37998;53.416;6.730;2023-12-04T03:58:18;29.70;;;19.40;;
51981;SDS011;37998;53.416;6.730;2023-12-04T04:00:44;29.63;;;19.73;;
51981;SDS011;37998;53.416;6.730;2023-12-04T04:03:10;32.28;;;21.50;;
51981;SDS011;37998;53.416;6.730;2023-12-04T04:05:36;31.75;;;20.77;;
51981;SDS011;37998;53.416;6.730;2023-12-04T04:08:02;32.20;;;21.40;;
51981;SDS011;37998;53.416;6.730;2023-12-04T04:10:28;33.10;;;21.33;;
51981;SDS011;37998;53.416;6.730;2023-12-04T04:12:54;31.13;;;21.17;;
51981;SDS011;37998;53.416;6.730;2023-12-04T04:15:20;30.40;;;20.23;;
51981;SDS011;37998;53.416;6.730;2023-12-04T04:17:46;29.65;;;21.67;;
51981;SDS011;37998;53.416;6.730;2023-12-04T04:20:12;35.13;;;22.10;;
51981;SDS011;37998;53.416;6.730;2023-12-04T04:22:38;33.35;;;21.55;;
51981;SDS011;37998;53.416;6.730;2023-12-04T04:25:08;32.03;;;22.02;;
51981;SDS011;37998;53.416;6.730;2023-12-04T04:27:35;32.00;;;19.90;;
51981;SDS011;37998;53.416;6.730;2023-12-04T04:30:02;34.25;;;21.08;;
51981;SDS011;37998;53.416;6.730;2023-12-04T04:32:29;33.00;;;22.35;;
51981;SDS011;37998;53.416;6.730;2023-12-04T04:34:55;32.42;;;20.83;;
51981;SDS011;37998;53.416;6.730;2023-12-04T04:37:21;32.42;;;21.52;;
51981;SDS011;37998;53.416;6.730;2023-12-04T04:39:47;34.15;;;21.63;;
51981;SDS011;37998;53.416;6.730;2023-12-04T04:42:13;29.08;;;19.77;;
51981;SDS011;37998;53.416;6.730;2023-12-04T04:44:39;33.83;;;21.40;;
51981;SDS011;37998;53.416;6.730;2023-12-04T04:47:05;37.00;;;22.10;;
51981;SDS011;37998;53.416;6.730;2023-12-04T04:49:31;31.50;;;21.08;;
51981;SDS011;37998;53.416;6.730;2023-12-04T04:51:57;34.33;;;21.38;;
51981;SDS011;37998;53.416;6.730;2023-12-04T04:54:23;31.13;;;21.05;;
51981;SDS011;37998;53.416;6.730;2023-12-04T04:56:49;33.05;;;21.17;;
51981;SDS011;37998;53.416;6.730;2023-12-04T04:59:15;30.48;;;19.63;;
51981;SDS011;37998;53.416;6.730;2023-12-04T05:01:40;32.85;;;21.25;;
51981;SDS011;37998;53.416;6.730;2023-12-04T05:04:06;32.30;;;20.88;;
51981;SDS011;37998;53.416;6.730;2023-12-04T05:06:32;33.80;;;21.65;;
51981;SDS011;37998;53.416;6.730;2023-12-04T05:08:58;33.33;;;21.75;;
51981;SDS011;37998;53.416;6.730;2023-12-04T05:11:24;32.47;;;21.52;;
51981;SDS011;37998;53.416;6.730;2023-12-04T05:13:50;32.67;;;21.10;;
51981;SDS011;37998;53.416;6.730;2023-12-04T05:16:16;39.17;;;21.75;;
51981;SDS011;37998;53.416;6.730;2023-12-04T05:18:42;32.03;;;21.83;;
51981;SDS011;37998;53.416;6.730;2023-12-04T05:21:11;33.92;;;21.48;;
51981;SDS011;37998;53.416;6.730;2023-12-04T05:23:37;32.50;;;20.90;;
51981;SDS011;37998;53.416;6.730;2023-12-04T05:26:03;34.10;;;21.02;;
51981;SDS011;37998;53.416;6.730;2023-12-04T05:28:30;32.97;;;21.17;;
51981;SDS011;37998;53.416;6.730;2023-12-04T05:30:56;36.40;;;22.40;;
51981;SDS011;37998;53.416;6.730;2023-12-04T05:33:22;30.70;;;20.85;;
51981;SDS011;37998;53.416;6.730;2023-12-04T05:35:48;34.85;;;22.25;;
51981;SDS011;37998;53.416;6.730;2023-12-04T05:38:16;32.92;;;22.00;;
51981;SDS011;37998;53.416;6.730;2023-12-04T05:40:42;36.55;;;21.70;;
51981;SDS011;37998;53.416;6.730;2023-12-04T05:43:08;35.65;;;22.55;;
51981;SDS011;37998;53.416;6.730;2023-12-04T05:45:34;32.80;;;22.08;;
51981;SDS011;37998;53.416;6.730;2023-12-04T05:48:00;36.72;;;21.52;;
51981;SDS011;37998;53.416;6.730;2023-12-04T05:50:26;36.25;;;21.50;;
51981;SDS011;37998;53.416;6.730;2023-12-04T05:52:52;35.13;;;22.65;;
51981;SDS011;37998;53.416;6.730;2023-12-04T05:55:18;34.83;;;22.25;;
51981;SDS011;37998;53.416;6.730;2023-12-04T05:57:45;33.63;;;21.60;;
51981;SDS011;37998;53.416;6.730;2023-12-04T06:00:11;32.53;;;20.33;;
51981;SDS011;37998;53.416;6.730;2023-12-04T06:02:38;35.58;;;21.60;;
51981;SDS011;37998;53.416;6.730;2023-12-04T06:05:07;32.63;;;21.70;;
51981;SDS011;37998;53.416;6.730;2023-12-04T06:07:34;33.13;;;21.08;;
51981;SDS011;37998;53.416;6.730;2023-12-04T06:10:00;36.70;;;21.77;;
51981;SDS011;37998;53.416;6.730;2023-12-04T06:12:29;32.60;;;20.55;;
51981;SDS011;37998;53.416;6.730;2023-12-04T06:14:56;35.00;;;21.63;;
51981;SDS011;37998;53.416;6.730;2023-12-04T06:17:23;34.33;;;21.42;;
51981;SDS011;37998;53.416;6.730;2023-12-04T06:19:49;34.40;;;21.58;;
51981;SDS011;37998;53.416;6.730;2023-12-04T06:22:15;33.17;;;21.42;;
51981;SDS011;37998;53.416;6.730;2023-12-04T06:24:44;34.88;;;22.95;;
51981;SDS011;37998;53.416;6.730;2023-12-04T06:27:11;35.33;;;21.08;;
51981;SDS011;37998;53.416;6.730;2023-12-04T06:29:40;33.00;;;20.30;;
51981;SDS011;37998;53.416;6.730;2023-12-04T06:32:06;36.38;;;21.63;;
51981;SDS011;37998;53.416;6.730;2023-12-04T06:34:33;36.95;;;21.58;;
51981;SDS011;37998;53.416;6.730;2023-12-04T06:36:59;37.42;;;21.63;;
51981;SDS011;37998;53.416;6.730;2023-12-04T06:39:30;35.08;;;21.55;;
51981;SDS011;37998;53.416;6.730;2023-12-04T06:41:58;33.90;;;20.73;;
51981;SDS011;37998;53.416;6.730;2023-12-04T06:44:24;32.67;;;21.48;;
51981;SDS011;37998;53.416;6.730;2023-12-04T06:46:50;34.10;;;21.73;;
51981;SDS011;37998;53.416;6.730;2023-12-04T06:49:18;31.80;;;19.90;;
51981;SDS011;37998;53.416;6.730;2023-12-04T06:51:44;35.70;;;21.88;;
51981;SDS011;37998;53.416;6.730;2023-12-04T06:54:10;35.15;;;22.33;;
51981;SDS011;37998;53.416;6.730;2023-12-04T06:56:38;33.47;;;21.27;;
51981;SDS011;37998;53.416;6.730;2023-12-04T06:59:04;30.08;;;20.25;;
51981;SDS011;37998;53.416;6.730;2023-12-04T07:01:30;32.88;;;19.70;;
51981;SDS011;37998;53.416;6.730;2023-12-04T07:03:56;31.95;;;20.85;;
51981;SDS011;37998;53.416;6.730;2023-12-04T07:06:22;32.38;;;20.50;;
51981;SDS011;37998;53.416;6.730;2023-12-04T07:08:48;33.72;;;21.55;;
51981;SDS011;37998;53.416;6.730;2023-12-04T07:11:14;33.58;;;21.50;;
51981;SDS011;37998;53.416;6.730;2023-12-04T07:13:41;33.78;;;20.90;;
51981;SDS011;37998;53.416;6.730;2023-12-04T07:16:07;34.08;;;20.67;;
51981;SDS011;37998;53.416;6.730;2023-12-04T07:18:33;33.22;;;21.45;;
51981;SDS011;37998;53.416;6.730;2023-12-04T07:21:00;31.58;;;20.63;;
51981;SDS011;37998;53.416;6.730;2023-12-04T07:23:26;31.85;;;20.50;;
51981;SDS011;37998;53.416;6.730;2023-12-04T07:25:52;28.23;;;19.05;;
51981;SDS011;37998;53.416;6.730;2023-12-04T07:28:17;33.05;;;20.00;;
51981;SDS011;37998;53.416;6.730;2023-12-04T07:30:44;33.08;;;21.20;;
51981;SDS011;37998;53.416;6.730;2023-12-04T07:33:11;29.60;;;19.60;;
51981;SDS011;37998;53.416;6.730;2023-12-04T07:35:37;31.33;;;19.42;;
51981;SDS011;37998;53.416;6.730;2023-12-04T07:38:03;30.35;;;19.50;;
51981;SDS011;37998;53.416;6.730;2023-12-04T07:40:29;31.05;;;19.92;;
51981;SDS011;37998;53.416;6.730;2023-12-04T07:42:55;31.33;;;18.65;;
51981;SDS011;37998;53.416;6.730;2023-12-04T07:45:20;29.63;;;19.48;;
51981;SDS011;37998;53.416;6.730;2023-12-04T07:47:46;31.38;;;19.58;;
51981;SDS011;37998;53.416;6.730;2023-12-04T07:50:12;27.80;;;19.20;;
51981;SDS011;37998;53.416;6.730;2023-12-04T07:52:38;28.80;;;19.38;;
51981;SDS011;37998;53.416;6.730;2023-12-04T07:55:04;29.15;;;18.60;;
51981;SDS011;37998;53.416;6.730;2023-12-04T07:57:30;30.80;;;18.40;;
51981;SDS011;37998;53.416;6.730;2023-12-04T07:59:56;31.48;;;19.05;;
51981;SDS011;37998;53.416;6.730;2023-12-04T08:02:22;28.02;;;18.90;;
51981;SDS011;37998;53.416;6.730;2023-12-04T08:04:51;28.30;;;17.33;;
51981;SDS011;37998;53.416;6.730;2023-12-04T08:07:18;27.95;;;18.05;;
51981;SDS011;37998;53.416;6.730;2023-12-04T08:09:44;25.42;;;17.30;;
51981;SDS011;37998;53.416;6.730;2023-12-04T08:12:10;27.10;;;17.73;;
51981;SDS011;37998;53.416;6.730;2023-12-04T08:14:36;29.35;;;18.48;;
51981;SDS011;37998;53.416;6.730;2023-12-04T08:17:02;29.25;;;18.17;;
51981;SDS011;37998;53.416;6.730;2023-12-04T08:19:27;27.98;;;18.15;;
51981;SDS011;37998;53.416;6.730;2023-12-04T08:21:54;29.40;;;17.63;;
51981;SDS011;37998;53.416;6.730;2023-12-04T08:24:20;26.55;;;18.95;;
51981;SDS011;37998;53.416;6.730;2023-12-04T08:26:46;26.08;;;17.90;;
51981;SDS011;37998;53.416;6.730;2023-12-04T08:29:12;28.33;;;17.80;;
51981;SDS011;37998;53.416;6.730;2023-12-04T08:31:38;24.50;;;16.77;;
51981;SDS011;37998;53.416;6.730;2023-12-04T08:34:04;24.52;;;17.45;;
51981;SDS011;37998;53.416;6.730;2023-12-04T08:36:30;26.25;;;17.08;;
51981;SDS011;37998;53.416;6.730;2023-12-04T08:38:56;26.38;;;17.40;;
51981;SDS011;37998;53.416;6.730;2023-12-04T08:41:22;25.40;;;15.82;;
51981;SDS011;37998;53.416;6.730;2023-12-04T08:43:47;26.58;;;16.77;;
51981;SDS011;37998;53.416;6.730;2023-12-04T08:46:13;23.67;;;15.98;;
51981;SDS011;37998;53.416;6.730;2023-12-04T08:48:42;24.45;;;16.20;;
51981;SDS011;37998;53.416;6.730;2023-12-04T08:51:14;23.13;;;16.25;;
51981;SDS011;37998;53.416;6.730;2023-12-04T08:53:41;23.85;;;15.35;;
51981;SDS011;37998;53.416;6.730;2023-12-04T08:56:07;24.00;;;15.88;;
51981;SDS011;37998;53.416;6.730;2023-12-04T08:58:33;22.48;;;15.75;;
51981;SDS011;37998;53.416;6.730;2023-12-04T09:00:59;21.15;;;15.95;;
51981;SDS011;37998;53.416;6.730;2023-12-04T09:03:25;22.05;;;14.55;;
51981;SDS011;37998;53.416;6.730;2023-12-04T09:05:51;22.30;;;15.27;;
51981;SDS011;37998;53.416;6.730;2023-12-04T09:08:18;24.00;;;15.60;;
51981;SDS011;37998;53.416;6.730;2023-12-04T09:10:44;22.25;;;15.52;;
51981;SDS011;37998;53.416;6.730;2023-12-04T09:13:11;21.65;;;14.77;;
51981;SDS011;37998;53.416;6.730;2023-12-04T09:15:37;19.35;;;14.43;;
51981;SDS011;37998;53.416;6.730;2023-12-04T09:18:02;21.50;;;14.68;;
51981;SDS011;37998;53.416;6.730;2023-12-04T09:20:29;21.25;;;14.70;;
51981;SDS011;37998;53.416;6.730;2023-12-04T09:22:54;19.55;;;13.23;;
51981;SDS011;37998;53.416;6.730;2023-12-04T09:25:20;20.05;;;13.98;;
51981;SDS011;37998;53.416;6.730;2023-12-04T09:27:46;27.98;;;13.63;;
51981;SDS011;37998;53.416;6.730;2023-12-04T09:30:12;19.58;;;14.60;;
51981;SDS011;37998;53.416;6.730;2023-12-04T09:32:39;17.73;;;11.73;;
51981;SDS011;37998;53.416;6.730;2023-12-04T09:35:05;20.83;;;12.88;;
51981;SDS011;37998;53.416;6.730;2023-12-04T09:37:32;19.17;;;13.48;;
51981;SDS011;37998;53.416;6.730;2023-12-04T09:39:58;23.05;;;20.08;;
51981;SDS011;37998;53.416;6.730;2023-12-04T09:42:24;21.80;;;14.15;;
51981;SDS011;37998;53.416;6.730;2023-12-04T09:44:50;20.98;;;13.70;;
51981;SDS011;37998;53.416;6.730;2023-12-04T09:47:18;19.35;;;12.93;;
51981;SDS011;37998;53.416;6.730;2023-12-04T09:49:44;17.85;;;12.85;;
51981;SDS011;37998;53.416;6.730;2023-12-04T09:52:11;22.60;;;13.32;;
51981;SDS011;37998;53.416;6.730;2023-12-04T09:54:37;20.85;;;13.82;;
51981;SDS011;37998;53.416;6.730;2023-12-04T09:57:06;22.80;;;14.40;;
51981;SDS011;37998;53.416;6.730;2023-12-04T09:59:33;19.80;;;13.40;;
51981;SDS011;37998;53.416;6.730;2023-12-04T10:02:01;20.85;;;13.05;;
51981;SDS011;37998;53.416;6.730;2023-12-04T10:04:27;19.48;;;13.88;;
51981;SDS011;37998;53.416;6.730;2023-12-04T10:06:53;19.67;;;13.63;;
51981;SDS011;37998;53.416;6.730;2023-12-04T10:09:19;19.30;;;13.82;;
51981;SDS011;37998;53.416;6.730;2023-12-04T10:11:48;20.55;;;14.05;;
51981;SDS011;37998;53.416;6.730;2023-12-04T10:14:16;19.40;;;13.88;;
51981;SDS011;37998;53.416;6.730;2023-12-04T10:16:43;19.70;;;13.95;;
51981;SDS011;37998;53.416;6.730;2023-12-04T10:19:17;23.25;;;15.48;;
51981;SDS011;37998;53.416;6.730;2023-12-04T10:21:55;19.50;;;14.95;;
51981;SDS011;37998;53.416;6.730;2023-12-04T10:24:29;21.77;;;16.20;;
51981;SDS011;37998;53.416;6.730;2023-12-04T10:26:57;21.98;;;15.60;;
51981;SDS011;37998;53.416;6.730;2023-12-04T10:29:23;21.45;;;15.70;;
51981;SDS011;37998;53.416;6.730;2023-12-04T10:31:51;23.30;;;15.98;;
51981;SDS011;37998;53.416;6.730;2023-12-04T10:34:20;20.98;;;15.10;;
51981;SDS011;37998;53.416;6.730;2023-12-04T10:36:46;22.05;;;15.40;;
51981;SDS011;37998;53.416;6.730;2023-12-04T10:39:12;28.20;;;15.30;;
51981;SDS011;37998;53.416;6.730;2023-12-04T10:41:38;21.20;;;15.13;;
51981;SDS011;37998;53.416;6.730;2023-12-04T10:44:04;20.85;;;14.95;;
51981;SDS011;37998;53.416;6.730;2023-12-04T10:46:31;18.90;;;14.05;;
51981;SDS011;37998;53.416;6.730;2023-12-04T10:49:00;21.40;;;14.88;;
51981;SDS011;37998;53.416;6.730;2023-12-04T10:51:28;19.33;;;13.63;;
51981;SDS011;37998;53.416;6.730;2023-12-04T10:53:55;19.92;;;13.57;;
51981;SDS011;37998;53.416;6.730;2023-12-04T10:56:39;21.75;;;15.43;;
51981;SDS011;37998;53.416;6.730;2023-12-04T10:59:15;25.23;;;18.52;;
51981;SDS011;37998;53.416;6.730;2023-12-04T11:01:47;22.52;;;16.10;;
51981;SDS011;37998;53.416;6.730;2023-12-04T11:04:16;21.05;;;14.15;;
51981;SDS011;37998;53.416;6.730;2023-12-04T11:06:46;21.30;;;15.18;;
51981;SDS011;37998;53.416;6.730;2023-12-04T11:09:15;18.35;;;14.35;;
51981;SDS011;37998;53.416;6.730;2023-12-04T11:11:43;19.27;;;14.23;;
51981;SDS011;37998;53.416;6.730;2023-12-04T11:14:16;21.02;;;14.63;;
51981;SDS011;37998;53.416;6.730;2023-12-04T11:16:48;20.20;;;14.85;;
51981;SDS011;37998;53.416;6.730;2023-12-04T11:22:05;22.45;;;14.93;;
51981;SDS011;37998;53.416;6.730;2023-12-04T11:24:32;20.80;;;13.63;;
51981;SDS011;37998;53.416;6.730;2023-12-04T11:27:00;18.70;;;14.05;;
51981;SDS011;37998;53.416;6.730;2023-12-04T11:29:26;21.08;;;14.32;;
51981;SDS011;37998;53.416;6.730;2023-12-04T11:31:54;17.85;;;13.15;;
51981;SDS011;37998;53.416;6.730;2023-12-04T11:34:20;19.67;;;13.38;;
51981;SDS011;37998;53.416;6.730;2023-12-04T11:36:46;18.58;;;13.35;;
51981;SDS011;37998;53.416;6.730;2023-12-04T11:39:12;19.35;;;13.93;;
51981;SDS011;37998;53.416;6.730;2023-12-04T11:41:40;17.42;;;13.18;;
51981;SDS011;37998;53.416;6.730;2023-12-04T11:44:13;15.93;;;11.98;;
51981;SDS011;37998;53.416;6.730;2023-12-04T11:46:41;18.77;;;13.57;;
51981;SDS011;37998;53.416;6.730;2023-12-04T11:49:30;19.45;;;14.10;;
51981;SDS011;37998;53.416;6.730;2023-12-04T11:51:57;20.88;;;14.32;;
51981;SDS011;37998;53.416;6.730;2023-12-04T11:54:25;20.13;;;13.50;;
51981;SDS011;37998;53.416;6.730;2023-12-04T11:57:00;18.15;;;12.88;;
51981;SDS011;37998;53.416;6.730;2023-12-04T11:59:47;16.85;;;12.63;;
51981;SDS011;37998;53.416;6.730;2023-12-04T12:02:13;17.80;;;12.57;;
51981;SDS011;37998;53.416;6.730;2023-12-04T12:04:40;15.23;;;12.23;;
51981;SDS011;37998;53.416;6.730;2023-12-04T12:07:06;17.83;;;13.32;;
51981;SDS011;37998;53.416;6.730;2023-12-04T12:09:32;18.23;;;13.02;;
51981;SDS011;37998;53.416;6.730;2023-12-04T12:12:00;18.40;;;12.80;;
51981;SDS011;37998;53.416;6.730;2023-12-04T12:14:26;17.08;;;11.60;;
51981;SDS011;37998;53.416;6.730;2023-12-04T12:16:54;16.95;;;12.13;;
51981;SDS011;37998;53.416;6.730;2023-12-04T12:19:20;16.70;;;12.63;;
51981;SDS011;37998;53.416;6.730;2023-12-04T12:21:47;17.13;;;12.73;;
51981;SDS011;37998;53.416;6.730;2023-12-04T12:24:17;19.00;;;13.70;;
51981;SDS011;37998;53.416;6.730;2023-12-04T12:26:44;17.77;;;12.82;;
51981;SDS011;37998;53.416;6.730;2023-12-04T12:29:10;18.25;;;13.18;;
51981;SDS011;37998;53.416;6.730;2023-12-04T12:31:36;17.88;;;12.35;;
51981;SDS011;37998;53.416;6.730;2023-12-04T12:34:03;17.10;;;13.07;;
51981;SDS011;37998;53.416;6.730;2023-12-04T12:36:30;21.50;;;12.48;;
51981;SDS011;37998;53.416;6.730;2023-12-04T12:38:59;16.73;;;12.60;;
51981;SDS011;37998;53.416;6.730;2023-12-04T12:41:25;17.67;;;12.50;;
51981;SDS011;37998;53.416;6.730;2023-12-04T12:43:52;19.25;;;14.20;;
51981;SDS011;37998;53.416;6.730;2023-12-04T12:46:18;18.92;;;13.30;;
51981;SDS011;37998;53.416;6.730;2023-12-04T12:48:46;18.70;;;12.73;;
51981;SDS011;37998;53.416;6.730;2023-12-04T12:51:12;18.60;;;13.25;;
51981;SDS011;37998;53.416;6.730;2023-12-04T12:53:39;18.55;;;13.40;;
51981;SDS011;37998;53.416;6.730;2023-12-04T12:56:06;17.83;;;12.80;;
51981;SDS011;37998;53.416;6.730;2023-12-04T12:58:33;17.92;;;13.32;;
51981;SDS011;37998;53.416;6.730;2023-12-04T13:00:59;17.63;;;12.48;;
51981;SDS011;37998;53.416;6.730;2023-12-04T13:03:26;18.15;;;12.90;;
51981;SDS011;37998;53.416;6.730;2023-12-04T13:05:55;19.20;;;13.43;;
51981;SDS011;37998;53.416;6.730;2023-12-04T13:08:21;19.33;;;12.73;;
51981;SDS011;37998;53.416;6.730;2023-12-04T13:10:47;17.30;;;12.50;;
51981;SDS011;37998;53.416;6.730;2023-12-04T13:13:13;18.73;;;12.60;;
51981;SDS011;37998;53.416;6.730;2023-12-04T13:15:40;17.73;;;12.05;;
51981;SDS011;37998;53.416;6.730;2023-12-04T13:18:06;18.05;;;12.77;;
51981;SDS011;37998;53.416;6.730;2023-12-04T13:20:32;16.92;;;12.73;;
51981;SDS011;37998;53.416;6.730;2023-12-04T13:23:00;15.27;;;11.43;;
51981;SDS011;37998;53.416;6.730;2023-12-04T13:25:26;21.38;;;14.43;;
51981;SDS011;37998;53.416;6.730;2023-12-04T13:27:52;18.20;;;13.30;;
51981;SDS011;37998;53.416;6.730;2023-12-04T13:30:18;18.85;;;13.13;;
51981;SDS011;37998;53.416;6.730;2023-12-04T13:32:45;19.92;;;14.00;;
51981;SDS011;37998;53.416;6.730;2023-12-04T13:35:11;18.52;;;13.43;;
51981;SDS011;37998;53.416;6.730;2023-12-04T13:37:37;23.60;;;17.02;;
51981;SDS011;37998;53.416;6.730;2023-12-04T13:40:06;19.63;;;13.15;;
51981;SDS011;37998;53.416;6.730;2023-12-04T13:42:33;18.50;;;12.80;;
51981;SDS011;37998;53.416;6.730;2023-12-04T13:45:18;17.98;;;13.00;;
51981;SDS011;37998;53.416;6.730;2023-12-04T13:47:47;18.48;;;12.60;;
51981;SDS011;37998;53.416;6.730;2023-12-04T13:50:13;18.25;;;11.98;;
51981;SDS011;37998;53.416;6.730;2023-12-04T13:52:39;18.23;;;12.27;;
51981;SDS011;37998;53.416;6.730;2023-12-04T13:55:08;17.10;;;12.18;;
51981;SDS011;37998;53.416;6.730;2023-12-04T13:57:44;17.63;;;12.25;;
51981;SDS011;37998;53.416;6.730;2023-12-04T14:00:30;17.88;;;13.25;;
51981;SDS011;37998;53.416;6.730;2023-12-04T14:02:57;17.23;;;11.70;;
51981;SDS011;37998;53.416;6.730;2023-12-04T14:05:32;16.42;;;12.60;;
51981;SDS011;37998;53.416;6.730;2023-12-04T14:08:01;18.30;;;12.45;;
51981;SDS011;37998;53.416;6.730;2023-12-04T14:10:29;15.70;;;11.80;;
51981;SDS011;37998;53.416;6.730;2023-12-04T14:12:55;16.77;;;12.20;;
51981;SDS011;37998;53.416;6.730;2023-12-04T14:15:21;18.13;;;13.27;;
51981;SDS011;37998;53.416;6.730;2023-12-04T14:17:47;16.15;;;12.55;;
51981;SDS011;37998;53.416;6.730;2023-12-04T14:20:13;17.98;;;12.50;;
51981;SDS011;37998;53.416;6.730;2023-12-04T14:22:42;15.82;;;11.75;;